KMXF/MXF METAR and TAF weather

Enter ICAO airport designator
Station Type Date Time Source
KMXF METAR 2020/01/17 13:56 UTC NOAA

KMXF 171356Z 05006KT 10SM OVC130 11/M00 A3047 RMK AO2A SLP321 T01131052 $


Station Type Date Time Source
KMXF Decoded METAR 2020/01/17 13:56 UTC NOAA

Maxwell Air Force Base / Montgomery, AL, United States (KMXF) 32-23N 086-22W
Jan 17, 2020 - 08:56 AM EST / 2020.01.17 1356 UTC
Wind: from the NE (050 degrees) at 7 MPH (6 KT):0
Visibility: 10 mile(s):0
Sky conditions: overcast
Temperature: 52.3 F (11.3 C)
Dew Point: 22.6 F (-5.2 C)
Relative Humidity: 31%
Pressure (altimeter): 30.47 in. Hg (1031 hPa)
ob: KMXF 171356Z 05006KT 10SM OVC130 11/M00 A3047 RMK AO2A SLP321 T01131052
cycle: 14

Station Type Date Time Source
KMXF TAF 2020/01/17 12:09 UTC NOAA

TAF KMXF 171200Z 1712/1818 04003KT 9999 SCT120 OVC140 QNH3040INS
BECMG 1715/1716 10010G18KT 9999 OVC100 QNH3044INS
BECMG 1722/1723 10010G15KT 9999 BKN050 OVC100 QNH3048INS
BECMG 1805/1806 15012G20KT 9999 BKN020 OVC050 QNH3046INS
BECMG 1813/1814 15008KT 9999 VCSH BKN010 OVC025 QNH3033INS
BECMG 1816/1817 17008KT 6000 -RA SCT008 OVC020 QNH3023INS TX16/1719Z TN10/1712Z

Example: see airport list